Portada
METAR-TAF:

METAR-TAF

Aeroports :

Txengdu, Xina

latitud: 30-40N, longitud: 104-01E, altitud: 508 m

Observació

L'informe es va fer fa 51 minuts, a les 01:00 UTC
Vent 4 kt del Sud/Sud-Oest, variant entre Sud/Sud-Est i Oest/Sud-Oest
Temperatura 12°C
Humitat 82%
Pressió 1015 hPa
Visibilitat 10 km o més
Escasses núvols a una alçada de 4000 ft

METAR: ZUUU 300100Z 20002MPS 150V240 9999 FEW040 12/09 Q1015 NOSIG

Hora: 09:51 (01:51 UTC)

Pronòstic

L'informe es va fer fa 5 hores i 22 minuts, a les 20:29 UTC
Pronòstic vàlid del 30 a les 00 UTC al 30 a les 24 UTC
Vent 6 kt del Nord/Nord-Est
Visibilitat: 5000 m
Núvols disperses a una alçada de 4000 ft
boirina
Temporalment
l' 30 a les 12 UTC al 30 a les 17 UTC
pluja

TAF: ZUUU 292029Z 3000/3024 02003MPS 5000 BR SCT040 TX17/3007Z TN09/3022Z TEMPO 3012/3017 -RA

Observacions i pronòstics meteorològics de més de 4000 aeroports (METAR i TAF).

Les estacions disponibles són els punts grocs i vermells al mapa.

Posi el ratolí al punt desitjat per veure el nom de l'estació.

Feu clic per veure les observacions i els pronòstics meteorològics.

Per canviar el mapa: feu clic els botons verds amb una creu de color negre per apropar; al botó verd amb un guió per allunyar la imatge; o en les fletxes verdes per a mapes adjacents.


METAR-TAF: